Time;durP1;ratioP1;P1;durP2;ratioP2;P2;SDS_P1;SDS_P2;PMS_P1;PMS_P2;Temp;Humidity;BMP_temperature;BMP_pressure;BME280_temperature;BME280_humidity;BME280_pressure;Samples;Min_cycle;Max_cycle;Signal;HPM_P1;HPM_P2
2023/02/06 00:01:08;;;;;;;21.83;10.15;;;4.50;97.50;;;;;;4950537;28;93345;-86
2023/02/06 00:03:34;;;;;;;17.85;9.32;;;4.40;97.70;;;;;;4957544;28;92454;-80
2023/02/06 00:06:00;;;;;;;18.17;8.68;;;4.40;97.90;;;;;;4951049;28;91770;-81
2023/02/06 00:08:26;;;;;;;16.77;9.02;;;4.40;97.90;;;;;;4946285;28;92536;-80
2023/02/06 00:10:52;;;;;;;15.40;8.30;;;4.40;98.30;;;;;;4958007;28;93375;-80
2023/02/06 00:13:19;;;;;;;16.02;8.35;;;4.40;98.10;;;;;;4958489;28;93392;-80
2023/02/06 00:15:45;;;;;;;14.20;8.07;;;4.50;98.00;;;;;;4951475;28;92537;-80
2023/02/06 00:18:10;;;;;;;16.63;8.57;;;4.50;98.00;;;;;;4945127;28;93240;-80
2023/02/06 00:20:36;;;;;;;16.20;8.57;;;4.50;98.00;;;;;;4954109;28;92528;-81
2023/02/06 00:23:02;;;;;;;16.27;7.95;;;4.50;98.00;;;;;;4949524;28;92139;-79
2023/02/06 00:25:28;;;;;;;17.00;8.43;;;4.50;97.90;;;;;;4952218;28;92641;-80
2023/02/06 00:27:54;;;;;;;17.52;8.90;;;4.50;97.80;;;;;;4949621;28;93497;-79
2023/02/06 00:30:20;;;;;;;16.58;8.43;;;4.50;97.80;;;;;;4953911;28;92049;-78
2023/02/06 00:32:45;;;;;;;16.60;7.82;;;4.50;98.00;;;;;;4948973;28;92515;-82
2023/02/06 00:35:11;;;;;;;16.08;8.07;;;4.50;98.10;;;;;;4955689;28;92387;-79
2023/02/06 00:37:37;;;;;;;13.77;7.20;;;4.50;98.10;;;;;;4960514;28;94101;-79
2023/02/06 00:40:03;;;;;;;15.98;7.15;;;4.50;97.80;;;;;;4954549;28;94238;-80
2023/02/06 00:42:28;;;;;;;17.48;7.05;;;4.50;97.60;;;;;;4960244;28;92233;-80
2023/02/06 00:44:54;;;;;;;12.30;6.00;;;4.40;97.60;;;;;;4963104;28;91999;-81
2023/02/06 00:47:20;;;;;;;13.02;6.22;;;4.50;97.50;;;;;;4957402;28;92838;-81
2023/02/06 00:49:45;;;;;;;13.45;5.90;;;4.40;97.00;;;;;;4962978;28;92414;-83
2023/02/06 00:52:11;;;;;;;13.27;6.68;;;4.40;97.10;;;;;;4953372;28;92671;-83
2023/02/06 00:54:37;;;;;;;13.07;6.43;;;4.50;97.10;;;;;;4976628;28;91675;-88
2023/02/06 00:57:02;;;;;;;12.55;6.13;;;4.50;97.00;;;;;;4956784;28;92577;-81
2023/02/06 00:59:28;;;;;;;15.48;6.65;;;4.50;96.80;;;;;;4960491;28;93560;-81
2023/02/06 01:01:54;;;;;;;12.20;5.78;;;4.50;96.60;;;;;;4958074;28;93381;-79
2023/02/06 01:04:19;;;;;;;12.23;6.35;;;4.60;96.70;;;;;;4954298;28;93994;-82
2023/02/06 01:06:45;;;;;;;14.23;6.82;;;4.60;96.80;;;;;;4955980;28;92406;-78
2023/02/06 01:09:11;;;;;;;13.05;6.72;;;4.60;96.40;;;;;;4955603;28;93592;-79
2023/02/06 01:11:36;;;;;;;12.65;6.38;;;4.60;96.30;;;;;;4945658;28;92448;-78
2023/02/06 01:14:02;;;;;;;12.75;6.55;;;4.60;96.20;;;;;;4947589;28;93787;-78
2023/02/06 01:16:28;;;;;;;12.95;6.45;;;4.60;96.10;;;;;;4952651;28;92747;-79
2023/02/06 01:18:53;;;;;;;14.18;6.88;;;4.60;96.20;;;;;;4954247;28;93394;-82
2023/02/06 01:21:22;;;;;;;13.90;6.60;;;4.60;96.20;;;;;;4947597;28;92382;-81
2023/02/06 01:23:50;;;;;;;13.90;6.45;;;4.60;96.10;;;;;;4951226;28;92827;-80
2023/02/06 01:26:18;;;;;;;12.07;6.43;;;4.70;96.00;;;;;;4947644;28;95131;-80
2023/02/06 01:28:45;;;;;;;15.20;6.80;;;4.60;96.10;;;;;;4953568;28;93847;-79
2023/02/06 01:31:12;;;;;;;12.70;6.68;;;4.70;96.10;;;;;;4948212;28;94448;-80
2023/02/06 01:33:38;;;;;;;12.32;6.32;;;4.70;95.90;;;;;;4953163;28;92450;-80
2023/02/06 01:36:04;;;;;;;14.45;6.72;;;4.70;95.90;;;;;;4949501;28;92777;-79
2023/02/06 01:38:30;;;;;;;15.63;7.07;;;4.60;95.80;;;;;;4953280;28;93918;-78
2023/02/06 01:40:57;;;;;;;14.02;7.00;;;4.60;95.90;;;;;;4951690;28;92523;-78
2023/02/06 01:43:27;;;;;;;14.93;7.43;;;4.70;95.90;;;;;;4951034;28;92000;-79
2023/02/06 01:45:52;;;;;;;15.88;7.22;;;4.70;95.90;;;;;;4943200;28;93379;-80
2023/02/06 01:48:25;;;;;;;14.63;7.22;;;4.70;95.80;;;;;;4953440;28;92457;-79
2023/02/06 01:50:53;;;;;;;15.73;7.45;;;4.70;95.60;;;;;;4952893;28;93361;-78
2023/02/06 01:53:20;;;;;;;14.30;7.28;;;4.60;95.50;;;;;;4954741;28;92441;-79
2023/02/06 01:55:47;;;;;;;14.15;7.00;;;4.70;95.60;;;;;;4951158;28;93766;-78
2023/02/06 01:58:30;;;;;;;15.25;7.45;;;4.70;95.50;;;;;;4948228;28;92996;-79
2023/02/06 02:00:58;;;;;;;13.65;6.90;;;4.60;95.40;;;;;;4953415;28;92641;-79
2023/02/06 02:03:24;;;;;;;16.05;7.63;;;4.60;95.40;;;;;;4944451;28;93982;-80
2023/02/06 02:05:52;;;;;;;16.67;7.70;;;4.70;95.30;;;;;;4955443;28;94062;-80
2023/02/06 02:08:23;;;;;;;14.00;6.93;;;4.70;95.20;;;;;;4948985;28;93341;-81
2023/02/06 02:10:48;;;;;;;12.57;6.38;;;4.70;95.20;;;;;;4956385;28;92366;-79
2023/02/06 02:13:14;;;;;;;14.82;7.63;;;4.60;95.40;;;;;;4949596;28;92360;-79
2023/02/06 02:16:01;;;;;;;13.52;7.25;;;4.60;95.60;;;;;;4955507;28;93620;-79
2023/02/06 02:18:45;;;;;;;13.82;6.80;;;4.60;95.80;;;;;;4952388;28;94743;-79
2023/02/06 02:22:04;;;;;;;15.68;7.10;;;4.70;95.60;;;;;;4953637;28;92539;-79
2023/02/06 02:24:38;;;;;;;16.95;7.32;;;4.60;95.60;;;;;;4921133;28;92326;-80
2023/02/06 02:27:24;;;;;;;13.65;7.05;;;4.60;95.50;;;;;;4952341;28;92860;-78
2023/02/06 02:30:17;;;;;;;14.60;7.35;;;4.70;95.40;;;;;;4954197;28;93759;-78
2023/02/06 02:32:54;;;;;;;14.63;7.15;;;4.60;95.30;;;;;;4949904;28;92044;-80
2023/02/06 02:35:27;;;;;;;14.30;7.28;;;4.60;95.20;;;;;;4960080;28;91505;-80
2023/02/06 02:38:35;;;;;;;14.80;7.10;;;4.70;95.30;;;;;;4944033;28;93652;-83
2023/02/06 02:41:09;;;;;;;14.48;7.05;;;4.60;95.10;;;;;;4957709;28;92925;-83
2023/02/06 02:43:56;;;;;;;16.60;8.20;;;4.60;95.40;;;;;;4949823;28;93349;-81
2023/02/06 02:46:35;;;;;;;15.57;7.57;;;4.60;95.50;;;;;;4955957;28;92248;-81
2023/02/06 02:49:12;;;;;;;15.73;7.80;;;4.50;95.50;;;;;;4954542;28;93835;-82
2023/02/06 02:51:39;;;;;;;15.70;7.82;;;4.50;95.40;;;;;;4958164;28;93822;-83
2023/02/06 02:54:05;;;;;;;17.15;7.75;;;4.50;95.60;;;;;;4962290;28;92636;-81
2023/02/06 02:56:32;;;;;;;16.63;7.38;;;4.50;95.80;;;;;;4950710;28;92207;-81
2023/02/06 02:59:09;;;;;;;16.05;7.30;;;4.50;95.70;;;;;;4955445;28;93689;-81
2023/02/06 03:01:42;;;;;;;14.80;7.10;;;4.50;95.40;;;;;;4952968;28;92595;-80
2023/02/06 03:04:24;;;;;;;16.85;8.00;;;4.50;95.50;;;;;;4955000;28;92416;-83
2023/02/06 03:07:07;;;;;;;14.88;6.80;;;4.50;95.40;;;;;;4946287;28;92507;-81
2023/02/06 03:09:47;;;;;;;15.02;7.00;;;4.50;95.70;;;;;;4947337;28;93386;-78
2023/02/06 03:12:16;;;;;;;15.85;7.70;;;4.60;95.50;;;;;;4952738;28;93898;-78
2023/02/06 03:15:06;;;;;;;17.08;7.95;;;4.50;95.40;;;;;;4955220;28;92382;-79
2023/02/06 03:17:36;;;;;;;15.88;7.13;;;4.50;95.60;;;;;;4951825;28;92460;-79
2023/02/06 03:20:05;;;;;;;14.52;7.63;;;4.50;95.50;;;;;;4954098;28;92609;-80
2023/02/06 03:22:33;;;;;;;16.83;8.07;;;4.60;95.50;;;;;;4952697;28;92479;-79
2023/02/06 03:25:01;;;;;;;14.75;7.25;;;4.50;95.50;;;;;;4956320;28;93880;-80
2023/02/06 03:27:28;;;;;;;17.33;8.05;;;4.60;95.30;;;;;;4954626;28;91796;-80
2023/02/06 03:29:57;;;;;;;14.95;7.38;;;4.50;95.30;;;;;;4958239;28;93174;-83
2023/02/06 03:32:31;;;;;;;15.77;7.53;;;4.60;95.30;;;;;;4951691;28;92491;-82
2023/02/06 03:35:01;;;;;;;15.52;7.53;;;4.60;95.10;;;;;;4955221;28;93264;-82
2023/02/06 03:37:28;;;;;;;;;;;4.60;95.10;;;;;;4940441;28;92928;-78
2023/02/06 03:39:56;;;;;;;17.25;7.50;;;4.60;95.20;;;;;;4955429;28;93143;-80
2023/02/06 03:42:23;;;;;;;15.88;7.53;;;4.60;95.30;;;;;;4954300;28;92571;-79
2023/02/06 03:44:59;;;;;;;15.70;7.53;;;4.60;95.10;;;;;;4957367;28;92666;-79
2023/02/06 03:47:27;;;;;;;17.80;7.60;;;4.60;95.20;;;;;;4954635;28;92131;-79
2023/02/06 03:49:56;;;;;;;15.80;7.70;;;4.60;95.10;;;;;;4956386;28;93702;-80
2023/02/06 03:52:25;;;;;;;15.95;7.00;;;4.60;95.10;;;;;;4948161;28;92535;-81
2023/02/06 03:54:59;;;;;;;14.90;7.10;;;4.50;95.20;;;;;;4954671;28;92550;-82
2023/02/06 03:57:28;;;;;;;17.13;7.78;;;4.50;95.30;;;;;;4949653;28;92482;-80
2023/02/06 03:59:53;;;;;;;16.92;7.78;;;4.50;95.30;;;;;;4956039;28;95026;-80
2023/02/06 04:02:22;;;;;;;15.35;7.28;;;4.50;95.50;;;;;;4950062;28;94226;-80
2023/02/06 04:04:48;;;;;;;13.20;6.60;;;4.50;95.50;;;;;;4955449;28;92587;-80
2023/02/06 04:07:24;;;;;;;14.95;6.93;;;4.40;95.40;;;;;;4950247;28;92869;-81
2023/02/06 04:09:50;;;;;;;14.85;6.35;;;4.40;95.40;;;;;;4956254;28;93673;-81
2023/02/06 04:12:17;;;;;;;16.92;7.50;;;4.40;95.40;;;;;;4952061;28;93734;-80
2023/02/06 04:14:43;;;;;;;16.63;7.70;;;4.40;95.50;;;;;;4955154;28;92367;-79
2023/02/06 04:17:09;;;;;;;12.85;6.50;;;4.40;95.50;;;;;;4954662;28;91709;-80
2023/02/06 04:19:35;;;;;;;14.07;6.25;;;4.40;95.40;;;;;;4954279;28;94040;-80
2023/02/06 04:22:01;;;;;;;14.60;6.72;;;4.50;95.40;;;;;;4952246;28;95794;-79
2023/02/06 04:24:27;;;;;;;15.75;6.90;;;4.50;95.40;;;;;;4955469;28;93142;-78
2023/02/06 04:26:53;;;;;;;15.25;7.13;;;4.50;95.20;;;;;;4953587;28;92388;-79
2023/02/06 04:29:18;;;;;;;14.52;6.63;;;4.50;95.30;;;;;;4954108;28;94456;-79
2023/02/06 04:31:44;;;;;;;13.52;6.63;;;4.40;95.40;;;;;;4953798;28;92422;-80
2023/02/06 04:34:10;;;;;;;15.02;7.00;;;4.40;95.50;;;;;;4959219;28;92479;-77
2023/02/06 04:36:36;;;;;;;15.07;7.10;;;4.40;95.60;;;;;;4955956;28;92659;-81
2023/02/06 04:39:03;;;;;;;14.68;6.70;;;4.40;95.70;;;;;;4948519;28;93714;-82
2023/02/06 04:41:29;;;;;;;15.88;6.82;;;4.40;95.40;;;;;;4957177;28;93334;-82
2023/02/06 04:43:54;;;;;;;17.02;7.47;;;4.40;95.50;;;;;;4954207;28;92636;-81
2023/02/06 04:46:20;;;;;;;14.80;7.10;;;4.50;95.40;;;;;;4957064;28;92315;-80
2023/02/06 04:48:46;;;;;;;15.25;6.60;;;4.50;95.20;;;;;;4947617;28;94242;-82
2023/02/06 04:51:12;;;;;;;15.63;7.35;;;4.50;95.30;;;;;;4952096;28;94667;-80
2023/02/06 04:53:38;;;;;;;17.02;7.20;;;4.50;95.20;;;;;;4950013;28;92726;-82
2023/02/06 04:56:09;;;;;;;18.67;7.55;;;4.40;95.40;;;;;;4954345;28;94034;-83
2023/02/06 04:58:37;;;;;;;18.08;7.85;;;4.50;95.60;;;;;;4952573;28;92625;-79
2023/02/06 05:01:03;;;;;;;19.08;8.45;;;4.50;95.60;;;;;;4955227;28;93667;-80
2023/02/06 05:03:29;;;;;;;19.80;8.32;;;4.50;95.30;;;;;;4953448;28;92634;-80
2023/02/06 05:05:58;;;;;;;18.42;7.65;;;4.50;95.50;;;;;;4955864;28;91451;-78
2023/02/06 05:08:24;;;;;;;18.08;7.57;;;4.50;95.40;;;;;;4951323;28;92699;-80
2023/02/06 05:10:51;;;;;;;18.85;8.00;;;4.50;95.40;;;;;;4952719;28;93065;-79
2023/02/06 05:13:17;;;;;;;18.77;8.13;;;4.50;95.40;;;;;;4954712;28;93370;-81
2023/02/06 05:15:43;;;;;;;19.42;8.43;;;4.50;95.50;;;;;;4957867;28;92221;-80
2023/02/06 05:18:09;;;;;;;20.08;8.05;;;4.50;95.60;;;;;;4957343;28;93348;-83
2023/02/06 05:20:34;;;;;;;20.25;8.45;;;4.50;95.50;;;;;;4957288;28;92863;-83
2023/02/06 05:23:00;;;;;;;18.98;7.53;;;4.40;95.60;;;;;;4947631;28;92568;-80
2023/02/06 05:25:26;;;;;;;25.42;9.68;;;4.40;95.50;;;;;;4951667;28;92572;-81
2023/02/06 05:27:52;;;;;;;24.98;9.73;;;4.50;95.60;;;;;;4948625;28;93843;-82
2023/02/06 05:30:17;;;;;;;23.20;9.52;;;4.50;95.60;;;;;;4945471;28;92706;-81
2023/02/06 05:32:43;;;;;;;21.42;8.57;;;4.60;95.60;;;;;;4955121;28;92393;-80
2023/02/06 05:35:09;;;;;;;19.58;8.68;;;4.60;95.30;;;;;;4956703;28;92433;-83
2023/02/06 05:37:37;;;;;;;20.13;8.10;;;4.60;95.50;;;;;;4957277;28;94282;-82
2023/02/06 05:40:04;;;;;;;22.25;8.82;;;4.60;95.60;;;;;;4956388;28;96031;-82
2023/02/06 05:42:30;;;;;;;21.30;9.10;;;4.60;95.70;;;;;;4952268;28;93624;-85
2023/02/06 05:44:56;;;;;;;23.27;8.60;;;4.60;95.80;;;;;;4961506;28;92228;-83
2023/02/06 05:47:22;;;;;;;18.80;8.25;;;4.60;95.70;;;;;;4959331;28;94189;-81
2023/02/06 05:49:48;;;;;;;19.52;8.23;;;4.60;95.60;;;;;;4958023;28;93101;-81
2023/02/06 05:52:14;;;;;;;21.20;8.68;;;4.70;95.70;;;;;;4959836;28;92418;-82
2023/02/06 05:54:40;;;;;;;18.98;8.32;;;4.70;95.60;;;;;;4949052;28;91580;-81
2023/02/06 05:57:06;;;;;;;18.55;8.00;;;4.70;95.60;;;;;;4959611;28;93412;-81
2023/02/06 05:59:32;;;;;;;17.45;7.00;;;4.70;95.40;;;;;;4953816;28;92538;-81
2023/02/06 06:01:58;;;;;;;18.60;7.82;;;4.60;95.70;;;;;;4957906;28;93507;-82
2023/02/06 06:04:24;;;;;;;17.70;7.75;;;4.60;95.40;;;;;;4958808;28;93061;-80
2023/02/06 06:06:50;;;;;;;18.27;7.90;;;4.60;95.50;;;;;;4961330;28;94339;-79
2023/02/06 06:09:15;;;;;;;17.67;8.05;;;4.60;95.60;;;;;;4961615;28;93146;-79
2023/02/06 06:11:41;;;;;;;19.65;8.35;;;4.60;95.60;;;;;;4961181;28;92445;-79
2023/02/06 06:14:07;;;;;;;21.90;7.93;;;4.60;95.70;;;;;;4962866;28;92670;-80
2023/02/06 06:16:33;;;;;;;20.35;8.40;;;4.70;95.60;;;;;;4962543;28;93423;-81
2023/02/06 06:19:00;;;;;;;19.67;7.93;;;4.70;95.50;;;;;;4952016;28;93455;-79
2023/02/06 06:21:26;;;;;;;22.98;8.50;;;4.70;95.30;;;;;;4955898;28;94218;-84
2023/02/06 06:23:52;;;;;;;19.00;7.18;;;4.70;95.40;;;;;;4958535;28;92340;-80
2023/02/06 06:26:18;;;;;;;22.65;8.55;;;4.70;96.90;;;;;;4956872;28;94847;-85
2023/02/06 06:28:43;;;;;;;22.52;8.43;;;4.70;95.70;;;;;;4952193;28;93829;-81
2023/02/06 06:31:10;;;;;;;20.13;7.15;;;4.70;95.60;;;;;;4953372;28;92621;-79
2023/02/06 06:33:37;;;;;;;21.10;8.40;;;4.70;95.50;;;;;;4948772;28;93166;-83
2023/02/06 06:36:04;;;;;;;23.30;8.95;;;4.70;95.60;;;;;;4944536;28;93111;-81
2023/02/06 06:38:30;;;;;;;21.33;8.95;;;4.70;95.40;;;;;;4949284;28;92526;-82
2023/02/06 06:40:55;;;;;;;21.08;8.82;;;4.70;95.20;;;;;;4953967;28;92276;-84
2023/02/06 06:43:21;;;;;;;23.48;9.02;;;4.70;95.20;;;;;;4960332;28;93153;-79
2023/02/06 06:45:47;;;;;;;21.05;8.18;;;4.70;95.40;;;;;;4954897;28;94251;-80
2023/02/06 06:48:12;;;;;;;24.55;8.52;;;4.70;95.40;;;;;;4954939;28;93381;-80
2023/02/06 06:50:38;;;;;;;19.02;7.85;;;4.80;95.20;;;;;;4957276;28;93169;-82
2023/02/06 06:53:04;;;;;;;21.08;8.30;;;4.70;95.30;;;;;;4954486;28;92258;-79
2023/02/06 06:55:30;;;;;;;19.02;8.00;;;4.80;95.10;;;;;;4961210;28;93525;-83
2023/02/06 06:57:56;;;;;;;19.73;8.45;;;4.80;95.00;;;;;;4959056;28;93383;-79
2023/02/06 07:00:21;;;;;;;18.90;7.85;;;4.80;94.90;;;;;;4958961;28;92505;-83
2023/02/06 07:02:47;;;;;;;19.98;7.47;;;4.80;94.90;;;;;;4950676;28;93812;-86
2023/02/06 07:05:13;;;;;;;22.60;9.70;;;4.80;94.70;;;;;;4949880;28;93179;-84
2023/02/06 07:07:39;;;;;;;20.98;9.27;;;4.80;94.90;;;;;;4963125;28;93345;-81
2023/02/06 07:10:08;;;;;;;20.73;9.77;;;4.80;95.30;;;;;;4960186;28;92477;-80
2023/02/06 07:12:34;;;;;;;21.63;8.57;;;4.80;94.90;;;;;;4961210;28;92170;-80
2023/02/06 07:15:00;;;;;;;22.73;8.88;;;4.80;95.00;;;;;;4947501;28;97516;-79
2023/02/06 07:17:25;;;;;;;24.08;9.55;;;4.90;94.90;;;;;;4957607;28;93305;-80
2023/02/06 07:19:51;;;;;;;25.25;10.15;;;4.90;94.50;;;;;;4962762;28;92421;-79
2023/02/06 07:22:18;;;;;;;22.38;9.55;;;4.90;94.30;;;;;;4962627;28;92452;-79
2023/02/06 07:24:44;;;;;;;22.52;9.18;;;4.90;94.50;;;;;;4961973;28;93809;-81
2023/02/06 07:27:10;;;;;;;18.52;8.10;;;4.90;94.30;;;;;;4962155;28;92993;-80
2023/02/06 07:29:36;;;;;;;20.05;8.23;;;5.00;94.20;;;;;;4961393;28;92084;-80
2023/02/06 07:32:03;;;;;;;20.30;8.60;;;4.90;94.00;;;;;;4963136;28;91584;-79
2023/02/06 07:34:29;;;;;;;20.17;9.07;;;4.90;94.20;;;;;;4961660;28;93701;-80
2023/02/06 07:36:55;;;;;;;20.67;8.90;;;4.90;94.10;;;;;;4945173;28;92849;-79
2023/02/06 07:39:20;;;;;;;20.60;7.78;;;5.00;93.90;;;;;;4945961;28;93347;-80
2023/02/06 07:41:48;;;;;;;17.92;7.78;;;5.10;93.80;;;;;;4955897;28;93628;-80
2023/02/06 07:44:14;;;;;;;17.23;6.90;;;5.10;93.50;;;;;;4954626;28;92617;-83
2023/02/06 07:46:41;;;;;;;18.00;8.27;;;5.00;93.60;;;;;;4962025;28;92926;-81
2023/02/06 07:49:07;;;;;;;19.15;7.70;;;5.10;93.70;;;;;;4952936;28;92239;-79
2023/02/06 07:51:33;;;;;;;16.90;7.90;;;5.10;93.40;;;;;;4953546;28;92433;-78
2023/02/06 07:53:58;;;;;;;15.02;7.30;;;5.10;93.50;;;;;;4961972;28;92646;-83
2023/02/06 07:56:24;;;;;;;17.13;7.80;;;5.10;93.30;;;;;;4961946;28;93249;-79
2023/02/06 07:58:52;;;;;;;16.13;7.28;;;5.00;93.40;;;;;;4956190;28;92604;-78
2023/02/06 08:01:19;;;;;;;15.32;7.13;;;5.00;93.20;;;;;;4940919;28;92457;-78
2023/02/06 08:03:44;;;;;;;17.25;7.20;;;5.10;93.10;;;;;;4958409;28;93690;-79
2023/02/06 08:06:13;;;;;;;16.35;6.85;;;5.10;92.90;;;;;;4961478;28;94374;-81
2023/02/06 08:08:39;;;;;;;17.20;7.43;;;5.10;92.90;;;;;;4961489;28;92289;-79
2023/02/06 08:11:06;;;;;;;15.43;6.88;;;5.20;93.00;;;;;;4962496;28;92489;-79
2023/02/06 08:13:33;;;;;;;14.55;6.93;;;5.30;92.70;;;;;;4961577;28;93680;-80
2023/02/06 08:16:06;;;;;;;15.57;7.15;;;5.40;92.60;;;;;;4971807;28;92877;-78
2023/02/06 08:18:31;;;;;;;14.70;6.82;;;5.40;92.20;;;;;;4958266;28;92604;-78
2023/02/06 08:21:08;;;;;;;15.60;7.60;;;5.30;91.90;;;;;;4956181;28;91394;-78
2023/02/06 08:23:34;;;;;;;15.07;7.15;;;5.30;92.10;;;;;;4959233;28;93141;-81
2023/02/06 08:26:07;;;;;;;16.92;8.30;;;5.30;92.00;;;;;;4957841;28;93358;-81
2023/02/06 08:28:34;;;;;;;17.48;7.93;;;5.30;92.00;;;;;;4961364;28;93508;-84
2023/02/06 08:31:06;;;;;;;21.30;8.30;;;5.30;92.20;;;;;;4962275;28;92406;-80
2023/02/06 08:33:32;;;;;;;16.55;7.13;;;5.30;92.20;;;;;;4959642;28;92489;-79
2023/02/06 08:36:01;;;;;;;14.88;7.45;;;5.40;92.20;;;;;;4958130;28;93475;-79
2023/02/06 08:38:27;;;;;;;15.50;7.35;;;5.30;92.10;;;;;;4961219;28;92374;-82
2023/02/06 08:40:53;;;;;;;15.45;7.85;;;5.30;92.20;;;;;;4959572;28;92302;-79
2023/02/06 08:43:18;;;;;;;16.25;7.82;;;5.40;92.20;;;;;;4960832;28;93249;-80
2023/02/06 08:45:48;;;;;;;14.57;7.70;;;5.40;92.00;;;;;;4960345;28;93438;-80
2023/02/06 08:48:14;;;;;;;16.02;8.10;;;5.20;91.40;;;;;;4961058;28;92103;-79
2023/02/06 08:50:40;;;;;;;16.48;7.93;;;5.10;91.20;;;;;;4952421;28;92480;-79
2023/02/06 08:53:07;;;;;;;17.33;7.43;;;5.10;91.50;;;;;;4960310;28;95371;-86
2023/02/06 08:55:32;;;;;;;16.48;8.13;;;5.00;91.60;;;;;;4958450;28;93276;-79
2023/02/06 08:57:58;;;;;;;12.95;7.00;;;5.00;91.80;;;;;;4961207;28;92381;-78
2023/02/06 09:00:24;;;;;;;14.73;7.30;;;5.00;91.50;;;;;;4961586;28;92079;-79
2023/02/06 09:02:52;;;;;;;16.27;7.68;;;5.00;91.60;;;;;;4958587;28;92104;-80
2023/02/06 09:05:17;;;;;;;15.98;7.70;;;5.00;91.50;;;;;;4947798;28;93019;-82
2023/02/06 09:07:43;;;;;;;15.40;8.13;;;5.00;91.70;;;;;;4958776;28;92443;-80
2023/02/06 09:10:09;;;;;;;18.42;8.27;;;5.10;91.50;;;;;;4959668;28;91511;-78
2023/02/06 09:12:34;;;;;;;17.63;8.38;;;5.00;91.30;;;;;;4958748;28;93629;-79
2023/02/06 09:15:00;;;;;;;14.27;7.18;;;4.90;90.90;;;;;;4960663;28;92839;-79
2023/02/06 09:17:30;;;;;;;16.95;6.90;;;4.70;90.40;;;;;;4960858;28;93211;-78
2023/02/06 09:19:59;;;;;;;15.48;7.57;;;4.70;90.80;;;;;;4961661;28;92070;-78
2023/02/06 09:22:25;;;;;;;15.85;7.68;;;4.70;90.40;;;;;;4960233;28;93707;-78
2023/02/06 09:24:51;;;;;;;15.20;8.30;;;4.70;90.50;;;;;;4960645;28;93004;-78
2023/02/06 09:27:16;;;;;;;15.32;7.53;;;4.80;90.20;;;;;;4960274;28;92016;-80
2023/02/06 09:29:42;;;;;;;16.38;8.13;;;4.80;89.20;;;;;;4952940;28;92308;-78
2023/02/06 09:32:08;;;;;;;17.65;7.40;;;4.70;89.90;;;;;;4940768;28;93241;-80
2023/02/06 09:34:34;;;;;;;14.48;7.70;;;4.80;89.80;;;;;;4948032;28;92413;-79
2023/02/06 09:37:04;;;;;;;14.60;8.00;;;4.80;88.20;;;;;;4940957;28;92909;-80
2023/02/06 09:39:31;;;;;;;14.90;7.57;;;4.70;89.00;;;;;;4956763;28;92376;-79
2023/02/06 09:42:10;;;;;;;16.60;7.90;;;4.80;89.10;;;;;;4958912;28;94116;-79
2023/02/06 09:44:45;;;;;;;15.80;8.10;;;5.00;88.80;;;;;;4939620;28;95406;-79
2023/02/06 09:47:25;;;;;;;13.77;7.82;;;5.10;88.50;;;;;;4940337;28;92535;-81
2023/02/06 09:49:58;;;;;;;16.42;7.88;;;5.20;87.40;;;;;;4959713;28;92402;-79
2023/02/06 09:52:45;;;;;;;14.15;6.60;;;5.50;88.00;;;;;;4960600;28;93200;-78
2023/02/06 09:55:36;;;;;;;14.35;7.63;;;5.80;87.40;;;;;;4952475;28;93372;-83
2023/02/06 09:58:04;;;;;;;14.30;6.38;;;6.00;85.70;;;;;;4956611;28;92602;-79
2023/02/06 10:00:43;;;;;;;15.98;7.60;;;6.30;85.20;;;;;;4949751;28;91350;-79
2023/02/06 10:03:20;;;;;;;16.23;8.00;;;6.30;83.40;;;;;;4960583;28;92864;-82
2023/02/06 10:05:49;;;;;;;14.35;8.05;;;6.50;82.40;;;;;;4960306;28;93902;-79
2023/02/06 10:08:14;;;;;;;16.38;7.95;;;6.60;82.30;;;;;;4957049;28;93049;-79
2023/02/06 10:10:54;;;;;;;15.55;8.02;;;6.80;82.50;;;;;;4954974;28;92446;-87
2023/02/06 10:13:53;;;;;;;15.80;8.13;;;7.00;80.30;;;;;;4959948;28;93569;-79
2023/02/06 10:16:40;;;;;;;16.83;8.18;;;7.20;80.30;;;;;;4958928;28;93049;-79
2023/02/06 10:19:24;;;;;;;13.65;7.45;;;7.40;79.50;;;;;;4959063;28;92259;-79
2023/02/06 10:22:00;;;;;;;15.25;7.05;;;7.50;77.50;;;;;;4941299;28;92381;-79
2023/02/06 10:24:35;;;;;;;14.68;8.45;;;7.40;77.90;;;;;;4943708;28;93372;-79
2023/02/06 10:27:05;;;;;;;16.55;7.88;;;7.60;76.70;;;;;;4944466;28;93013;-78
2023/02/06 10:29:35;;;;;;;13.18;7.88;;;7.80;77.00;;;;;;4949733;28;92657;-79
2023/02/06 10:32:31;;;;;;;15.13;7.75;;;7.90;77.00;;;;;;4967257;28;92492;-78
2023/02/06 10:35:19;;;;;;;16.65;8.57;;;8.30;75.70;;;;;;4952611;28;94306;-78
2023/02/06 10:38:06;;;;;;;13.40;7.82;;;8.60;74.50;;;;;;4953433;28;94218;-83
2023/02/06 10:41:09;;;;;;;12.98;7.45;;;8.70;74.40;;;;;;4960763;28;92469;-79
2023/02/06 10:44:09;;;;;;;15.68;8.43;;;8.70;74.10;;;;;;4955851;28;92324;-81
2023/02/06 10:46:44;;;;;;;14.27;8.23;;;8.70;73.80;;;;;;4955012;28;92527;-80
2023/02/06 10:49:24;;;;;;;12.25;7.32;;;8.60;73.40;;;;;;4958929;28;93206;-81
2023/02/06 10:51:55;;;;;;;14.27;7.65;;;9.10;72.80;;;;;;4944519;28;93408;-78
2023/02/06 10:54:32;;;;;;;13.48;7.68;;;9.50;71.60;;;;;;4959096;28;91543;-78
2023/02/06 10:56:59;;;;;;;13.35;7.18;;;9.40;71.30;;;;;;4952288;28;93193;-78
2023/02/06 10:59:37;;;;;;;13.18;6.53;;;9.20;69.30;;;;;;4959251;28;93412;-80
2023/02/06 11:02:10;;;;;;;12.10;6.97;;;8.90;71.10;;;;;;4952902;28;93128;-79
2023/02/06 11:05:14;;;;;;;11.88;6.90;;;8.50;70.50;;;;;;4960669;28;92555;-79
2023/02/06 11:07:53;;;;;;;10.70;6.10;;;8.50;71.90;;;;;;4951381;28;93313;-79
2023/02/06 11:10:24;;;;;;;14.60;7.18;;;8.40;72.70;;;;;;4959649;28;93190;-84
2023/02/06 11:12:56;;;;;;;14.10;6.50;;;8.50;72.30;;;;;;4955973;28;92827;-80
2023/02/06 11:15:32;;;;;;;11.27;6.60;;;8.50;71.20;;;;;;4953891;28;92292;-79
2023/02/06 11:18:02;;;;;;;12.25;6.05;;;8.50;71.80;;;;;;4955720;28;92719;-80
2023/02/06 11:20:32;;;;;;;11.65;6.82;;;8.60;71.50;;;;;;4951208;28;93180;-81
2023/02/06 11:23:13;;;;;;;12.80;6.43;;;8.50;71.00;;;;;;4953387;28;92401;-79
2023/02/06 11:25:40;;;;;;;12.23;6.90;;;8.60;70.40;;;;;;4947240;28;92573;-83
2023/02/06 11:28:13;;;;;;;12.98;7.10;;;8.70;71.70;;;;;;4946523;28;94607;-79
2023/02/06 11:30:41;;;;;;;11.27;6.40;;;8.90;70.50;;;;;;4948911;28;93829;-80
2023/02/06 11:33:19;;;;;;;12.57;5.97;;;8.90;70.40;;;;;;4950618;28;92301;-79
2023/02/06 11:35:51;;;;;;;10.77;5.82;;;9.00;69.40;;;;;;4947529;28;93044;-80
2023/02/06 11:38:28;;;;;;;12.00;6.13;;;8.90;69.80;;;;;;4949802;28;93989;-82
2023/02/06 11:41:01;;;;;;;;;;;8.90;70.70;;;;;;4947273;28;92961;-81
2023/02/06 11:43:47;;;;;;;11.70;6.15;;;8.90;71.30;;;;;;4953123;28;92456;-78
2023/02/06 11:46:16;;;;;;;12.18;5.68;;;8.70;69.20;;;;;;4956862;28;91620;-81
2023/02/06 11:48:46;;;;;;;12.30;6.10;;;8.50;70.30;;;;;;4952604;28;94275;-81
2023/02/06 11:51:12;;;;;;;10.88;5.75;;;8.40;71.30;;;;;;4946419;28;93824;-84
2023/02/06 11:53:52;;;;;;;11.35;5.90;;;8.30;69.90;;;;;;4947672;28;94056;-79
2023/02/06 11:56:19;;;;;;;12.10;5.80;;;8.10;70.10;;;;;;4954935;28;93573;-81
2023/02/06 11:58:59;;;;;;;11.63;5.45;;;8.10;69.70;;;;;;4943890;28;93954;-80
2023/02/06 12:01:24;;;;;;;9.90;5.80;;;8.20;70.90;;;;;;4946668;28;94038;-79
2023/02/06 12:03:56;;;;;;;10.80;5.97;;;8.30;69.70;;;;;;4948331;28;92672;-80
2023/02/06 12:06:33;;;;;;;10.43;5.15;;;8.10;68.50;;;;;;4946563;28;93441;-82
2023/02/06 12:09:02;;;;;;;12.52;6.05;;;8.10;71.20;;;;;;4954517;28;93448;-81
2023/02/06 12:11:27;;;;;;;10.57;5.45;;;8.10;71.30;;;;;;4954888;28;96288;-82
2023/02/06 12:14:25;;;;;;;10.73;6.10;;;7.90;69.00;;;;;;4953612;28;92368;-82
2023/02/06 12:16:51;;;;;;;11.73;5.45;;;7.70;70.70;;;;;;4947221;28;92111;-84
2023/02/06 12:19:30;;;;;;;11.07;5.32;;;7.40;71.50;;;;;;4955723;28;94833;-80
2023/02/06 12:22:03;;;;;;;14.52;5.53;;;7.30;75.20;;;;;;4958117;28;93792;-80
2023/02/06 12:24:29;;;;;;;11.48;5.72;;;7.20;73.40;;;;;;4953087;28;91959;-81
2023/02/06 12:26:58;;;;;;;13.98;5.82;;;7.20;73.20;;;;;;4961151;28;92350;-80
2023/02/06 12:29:27;;;;;;;11.52;5.45;;;7.20;73.50;;;;;;4949260;28;94349;-81
2023/02/06 12:32:03;;;;;;;13.60;5.85;;;7.20;73.00;;;;;;4950329;28;92808;-85
2023/02/06 12:34:48;;;;;;;12.52;6.07;;;7.10;73.10;;;;;;4957314;28;92690;-81
2023/02/06 12:37:20;;;;;;;9.68;4.60;;;7.00;73.50;;;;;;4959359;28;91891;-89
2023/02/06 12:39:47;;;;;;;11.73;5.43;;;6.90;73.40;;;;;;4961023;28;93554;-83
2023/02/06 12:42:58;;;;;;;10.73;5.25;;;6.80;74.70;;;;;;4955105;28;93470;-82
2023/02/06 12:45:47;;;;;;;10.98;5.70;;;6.70;73.90;;;;;;4937963;28;93302;-86
2023/02/06 12:48:26;;;;;;;11.32;5.35;;;6.80;74.10;;;;;;4958305;28;92741;-82
2023/02/06 12:51:08;;;;;;;9.75;4.68;;;6.70;73.20;;;;;;4955490;28;93674;-80
2023/02/06 12:53:44;;;;;;;10.10;4.97;;;6.60;73.10;;;;;;4942822;28;92402;-81
2023/02/06 12:56:34;;;;;;;12.63;5.20;;;6.60;73.40;;;;;;4946004;28;92652;-80
2023/02/06 12:59:09;;;;;;;11.95;5.38;;;6.70;73.70;;;;;;4943899;28;92504;-81
2023/02/06 13:02:12;;;;;;;11.27;5.18;;;6.70;72.80;;;;;;4954180;28;93645;-82
2023/02/06 13:04:38;;;;;;;12.30;5.45;;;6.60;73.30;;;;;;4938243;28;93729;-79